Time;durP1;ratioP1;P1;durP2;ratioP2;P2;SDS_P1;SDS_P2;PMS_P1;PMS_P2;Temp;Humidity;BMP_temperature;BMP_pressure;BME280_temperature;BME280_humidity;BME280_pressure;Samples;Min_cycle;Max_cycle;Signal;HPM_P1;HPM_P2
2021/05/05 00:00:38;;;;;;;22.20;9.98;;;;;;;3.52;100.00;100066.59;5104002;28;20032;-66
2021/05/05 00:03:03;;;;;;;21.95;10.02;;;;;;;3.55;100.00;100072.75;5103298;28;20027;-66
2021/05/05 00:05:29;;;;;;;24.55;10.90;;;;;;;3.58;100.00;100078.06;5103019;28;20438;-66
2021/05/05 00:07:54;;;;;;;21.90;10.65;;;;;;;3.63;100.00;100076.41;5104265;28;20532;-65
2021/05/05 00:10:20;;;;;;;22.17;10.93;;;;;;;3.67;100.00;100080.00;5101487;28;20024;-66
2021/05/05 00:12:46;;;;;;;22.63;11.05;;;;;;;3.72;100.00;100073.09;5105094;28;20531;-67
2021/05/05 00:15:15;;;;;;;23.55;11.65;;;;;;;3.77;100.00;100083.66;5102015;28;20047;-68
2021/05/05 00:17:41;;;;;;;24.00;11.80;;;;;;;3.81;100.00;100085.47;5104304;28;20059;-65
2021/05/05 00:20:08;;;;;;;24.08;11.60;;;;;;;3.88;100.00;100081.25;5102646;28;20169;-65
2021/05/05 00:22:33;;;;;;;23.95;11.43;;;;;;;3.89;100.00;100072.53;5103222;28;20020;-66
2021/05/05 00:24:59;;;;;;;24.63;11.35;;;;;;;3.91;100.00;100076.94;5103834;28;20046;-65
2021/05/05 00:27:24;;;;;;;24.00;10.43;;;;;;;3.93;100.00;100079.59;5101912;28;20044;-67
2021/05/05 00:29:50;;;;;;;24.33;10.82;;;;;;;3.96;100.00;100082.25;5104770;28;20061;-66
2021/05/05 00:32:15;;;;;;;22.63;9.70;;;;;;;3.96;100.00;100080.56;5101371;28;20024;-67
2021/05/05 00:34:41;;;;;;;24.33;10.48;;;;;;;3.98;100.00;100072.75;5104079;28;20085;-64
2021/05/05 00:37:06;;;;;;;23.73;8.80;;;;;;;4.08;100.00;100064.22;5102400;28;20027;-66
2021/05/05 00:39:31;;;;;;;23.10;9.20;;;;;;;4.11;100.00;100071.22;5102910;28;20043;-67
2021/05/05 00:41:57;;;;;;;23.10;9.00;;;;;;;4.10;100.00;100059.88;5103650;28;20031;-66
2021/05/05 00:44:23;;;;;;;23.23;8.77;;;;;;;4.08;100.00;100069.44;5103433;28;20066;-65
2021/05/05 00:46:49;;;;;;;21.95;9.18;;;;;;;4.08;100.00;100063.31;5109374;28;20024;-66
2021/05/05 00:49:15;;;;;;;24.65;9.52;;;;;;;4.11;100.00;100064.25;5105479;28;20027;-64
2021/05/05 00:51:40;;;;;;;24.58;9.20;;;;;;;4.16;100.00;100062.59;5108218;28;20066;-66
2021/05/05 00:54:06;;;;;;;23.40;8.95;;;;;;;4.20;100.00;100058.31;5106657;28;20535;-66
2021/05/05 00:56:31;;;;;;;23.35;8.90;;;;;;;4.21;100.00;100054.84;5106676;28;20027;-67
2021/05/05 00:58:57;;;;;;;26.33;9.70;;;;;;;4.14;100.00;100043.38;5107644;28;20168;-67
2021/05/05 01:01:22;;;;;;;27.77;10.18;;;;;;;4.07;100.00;100057.19;5105586;28;20485;-64
2021/05/05 01:03:47;;;;;;;26.00;10.45;;;;;;;3.96;100.00;100053.50;5108550;28;20554;-68
2021/05/05 01:06:13;;;;;;;25.77;10.57;;;;;;;3.88;100.00;100053.38;5105690;28;20032;-66
2021/05/05 01:08:39;;;;;;;25.42;10.80;;;;;;;3.82;100.00;100048.03;5107475;28;20024;-67
2021/05/05 01:11:05;;;;;;;24.23;10.85;;;;;;;3.76;100.00;100048.78;5106363;28;20028;-70
2021/05/05 01:13:30;;;;;;;23.73;10.95;;;;;;;3.68;100.00;100055.59;5106142;28;20477;-65
2021/05/05 01:15:56;;;;;;;24.15;11.07;;;;;;;3.63;100.00;100050.28;5107930;28;20023;-71
2021/05/05 01:18:22;;;;;;;25.60;11.23;;;;;;;3.59;100.00;100052.81;5104811;28;20470;-70
2021/05/05 01:20:47;;;;;;;25.95;11.90;;;;;;;3.52;100.00;100049.16;5108295;28;20027;-70
2021/05/05 01:23:12;;;;;;;24.70;11.18;;;;;;;3.52;100.00;100053.53;5105017;28;20101;-70
2021/05/05 01:25:38;;;;;;;23.60;10.77;;;;;;;3.45;100.00;100048.19;5106786;28;20028;-70
2021/05/05 01:28:04;;;;;;;24.83;9.82;;;;;;;3.42;100.00;100055.97;5106228;28;20474;-70
2021/05/05 01:30:29;;;;;;;21.92;8.90;;;;;;;3.40;100.00;100047.19;5105536;28;20044;-70
2021/05/05 01:32:55;;;;;;;22.58;8.68;;;;;;;3.37;100.00;100051.50;5107464;28;20020;-70
2021/05/05 01:35:21;;;;;;;21.83;8.40;;;;;;;3.36;100.00;100053.19;5104508;28;20039;-70
2021/05/05 01:37:49;;;;;;;21.40;8.77;;;;;;;3.41;100.00;100048.09;5100397;28;20103;-70
2021/05/05 01:40:21;;;;;;;21.60;8.80;;;;;;;3.44;100.00;100045.53;5107326;28;20529;-69
2021/05/05 01:42:47;;;;;;;21.88;8.77;;;;;;;3.49;100.00;100033.44;5100475;28;20115;-70
2021/05/05 01:45:13;;;;;;;21.42;8.73;;;;;;;3.47;100.00;100037.75;5107087;28;20055;-70
2021/05/05 01:47:38;;;;;;;20.98;9.05;;;;;;;3.46;100.00;100042.09;5105204;28;20020;-70
2021/05/05 01:50:04;;;;;;;21.80;9.07;;;;;;;3.42;100.00;100040.28;5106041;28;20081;-70
2021/05/05 01:52:30;;;;;;;24.52;9.38;;;;;;;3.42;100.00;100035.06;5106350;28;20094;-70
2021/05/05 01:54:55;;;;;;;22.98;10.15;;;;;;;3.40;100.00;100039.34;5104208;28;20032;-70
2021/05/05 01:57:42;;;;;;;23.83;10.23;;;;;;;3.36;100.00;100044.50;5107251;28;20024;-70
2021/05/05 02:00:26;;;;;;;23.48;10.88;;;;;;;3.37;100.00;100041.03;5105478;28;20032;-70
2021/05/05 02:02:51;;;;;;;24.10;11.27;;;;;;;3.41;100.00;100043.75;5099490;28;20031;-70
2021/05/05 02:05:17;;;;;;;24.65;11.70;;;;;;;3.47;100.00;100040.38;5107225;28;20023;-69
2021/05/05 02:07:42;;;;;;;25.60;12.88;;;;;;;3.47;100.00;100037.75;5104679;28;20032;-70
2021/05/05 02:10:11;;;;;;;25.52;13.02;;;;;;;3.46;100.00;100036.84;5106114;28;20447;-69
2021/05/05 02:12:37;;;;;;;25.52;12.85;;;;;;;3.55;100.00;100043.13;5105155;28;20115;-69
2021/05/05 02:15:04;;;;;;;24.65;13.05;;;;;;;3.56;100.00;100042.28;5105145;28;20103;-70
2021/05/05 02:17:30;;;;;;;26.30;13.63;;;;;;;3.58;100.00;100040.56;5106414;28;20028;-70
2021/05/05 02:19:55;;;;;;;26.02;13.73;;;;;;;3.49;100.00;100033.44;5103970;28;20035;-70
2021/05/05 02:22:20;;;;;;;27.13;13.48;;;;;;;3.41;100.00;100037.63;5106869;27;20028;-70
2021/05/05 02:24:46;;;;;;;27.70;13.95;;;;;;;3.38;100.00;100035.84;5103766;28;20035;-70
2021/05/05 02:27:11;;;;;;;27.73;13.65;;;;;;;3.40;100.00;100035.88;5106023;28;20051;-70
2021/05/05 02:29:37;;;;;;;26.88;14.05;;;;;;;3.41;100.00;100041.13;5104723;28;20087;-69
2021/05/05 02:32:07;;;;;;;26.50;13.98;;;;;;;3.41;100.00;100043.75;5105017;28;20024;-70
2021/05/05 02:34:34;;;;;;;26.77;14.18;;;;;;;3.53;100.00;100050.06;5104975;28;20046;-70
2021/05/05 02:36:59;;;;;;;29.13;14.18;;;;;;;3.56;100.00;100042.28;5104165;28;20070;-70
2021/05/05 02:39:25;;;;;;;29.05;15.40;;;;;;;3.59;100.00;100037.13;5106503;28;20112;-70
2021/05/05 02:41:50;;;;;;;28.05;15.00;;;;;;;3.65;100.00;100050.31;5103436;28;20129;-70
2021/05/05 02:44:16;;;;;;;30.30;15.82;;;;;;;3.66;100.00;100046.84;5106527;28;20036;-64
2021/05/05 02:46:42;;;;;;;29.08;15.60;;;;;;;3.60;100.00;100039.75;5104052;28;20427;-68
2021/05/05 02:49:08;;;;;;;30.02;16.85;;;;;;;3.52;100.00;100043.06;5105195;28;20028;-67
2021/05/05 02:51:34;;;;;;;29.98;17.80;;;;;;;3.49;100.00;100050.00;5105166;28;20035;-66
2021/05/05 02:54:00;;;;;;;32.38;18.08;;;;;;;3.52;100.00;100045.69;5103951;28;20024;-68
2021/05/05 02:56:25;;;;;;;30.63;18.95;;;;;;;3.55;100.00;100045.75;5106062;28;20058;-66
2021/05/05 02:58:51;;;;;;;33.97;20.83;;;;;;;3.58;100.00;100044.09;5103125;28;20040;-66
2021/05/05 03:01:16;;;;;;;34.70;22.00;;;;;;;3.63;100.00;100050.28;5106047;28;20030;-66
2021/05/05 03:03:41;;;;;;;37.50;22.92;;;;;;;3.66;100.00;100054.69;5103464;28;20031;-67
2021/05/05 03:06:07;;;;;;;37.40;25.10;;;;;;;3.71;100.00;100053.03;5104879;28;20076;-65
2021/05/05 03:08:32;;;;;;;36.35;24.27;;;;;;;3.71;100.00;100046.94;5103555;28;20024;-67
2021/05/05 03:11:00;;;;;;;38.25;25.52;;;;;;;3.70;100.00;100048.69;5103285;28;20024;-69
2021/05/05 03:13:25;;;;;;;38.67;24.95;;;;;;;3.72;100.00;100053.94;5105776;28;20031;-65
2021/05/05 03:15:50;;;;;;;38.60;26.40;;;;;;;3.72;100.00;100054.81;5102507;28;20149;-66
2021/05/05 03:18:16;;;;;;;38.90;25.08;;;;;;;3.70;100.00;100053.00;5105661;28;20024;-65
2021/05/05 03:20:41;;;;;;;38.95;24.70;;;;;;;3.67;100.00;100056.47;5103597;27;20106;-66
2021/05/05 03:23:06;;;;;;;36.70;23.05;;;;;;;3.68;100.00;100058.19;5104100;28;20381;-66
2021/05/05 03:25:32;;;;;;;36.00;23.08;;;;;;;3.67;100.00;100059.94;5103155;28;20024;-66
2021/05/05 03:27:57;;;;;;;36.88;23.33;;;;;;;3.65;100.00;100064.25;5102899;28;20047;-66
2021/05/05 03:30:23;;;;;;;36.63;23.05;;;;;;;3.63;100.00;100063.34;5105800;28;20534;-68
2021/05/05 03:32:48;;;;;;;33.15;20.17;;;;;;;3.64;100.00;100062.50;5098219;28;20056;-66
2021/05/05 03:35:13;;;;;;;31.73;19.80;;;;;;;3.68;100.00;100063.44;5105388;28;20016;-66
2021/05/05 03:37:39;;;;;;;31.23;17.05;;;;;;;3.76;100.00;100066.22;5103126;28;20030;-67
2021/05/05 03:40:06;;;;;;;29.50;16.63;;;;;;;3.73;100.00;100066.13;5103731;28;20028;-66
2021/05/05 03:42:31;;;;;;;29.27;15.07;;;;;;;3.67;100.00;100066.91;5104246;27;20028;-66
2021/05/05 03:44:58;;;;;;;26.58;12.60;;;;;;;3.63;100.00;100060.72;5102498;28;20020;-65
2021/05/05 03:47:23;;;;;;;29.08;12.77;;;;;;;3.59;100.00;100058.91;5105619;28;20052;-64
2021/05/05 03:49:48;;;;;;;27.95;13.55;;;;;;;3.56;100.00;100068.44;5101902;28;20048;-68
2021/05/05 03:52:14;;;;;;;26.17;12.88;;;;;;;3.50;100.00;100056.09;5104787;28;20369;-68
2021/05/05 03:54:39;;;;;;;29.48;13.18;;;;;;;3.48;100.00;100066.53;5102990;28;20024;-65
2021/05/05 03:57:04;;;;;;;29.25;12.50;;;;;;;3.50;100.00;100063.94;5103506;28;20069;-65
2021/05/05 03:59:30;;;;;;;27.95;13.38;;;;;;;3.48;100.00;100071.75;5104108;28;20374;-65
2021/05/05 04:01:55;;;;;;;25.95;12.10;;;;;;;3.58;100.00;100071.94;5102394;28;20120;-67
2021/05/05 04:04:20;;;;;;;28.10;12.43;;;;;;;3.56;100.00;100068.44;5105177;28;20090;-65
2021/05/05 04:06:46;;;;;;;30.23;12.27;;;;;;;3.49;100.00;100062.19;5101858;28;20062;-65
2021/05/05 04:09:11;;;;;;;28.38;12.43;;;;;;;3.48;100.00;100063.03;5104072;28;20078;-66
2021/05/05 04:11:37;;;;;;;29.65;12.02;;;;;;;3.49;100.00;100067.41;5103345;28;20045;-66
2021/05/05 04:14:03;;;;;;;25.80;10.50;;;;;;;3.52;100.00;100071.81;5102842;28;20471;-65
2021/05/05 04:16:28;;;;;;;29.27;10.57;;;;;;;3.52;100.00;100071.81;5104100;28;20042;-66
2021/05/05 04:18:53;;;;;;;31.52;11.40;;;;;;;3.53;100.00;100073.59;5101106;28;20020;-66
2021/05/05 04:21:20;;;;;;;28.65;10.98;;;;;;;3.52;100.00;100083.16;5103677;28;20042;-66
2021/05/05 04:23:46;;;;;;;29.83;11.35;;;;;;;3.53;100.00;100076.22;5101584;28;20109;-68
2021/05/05 04:26:11;;;;;;;30.02;10.57;;;;;;;3.52;100.00;100080.53;5103447;28;20036;-69
2021/05/05 04:28:37;;;;;;;27.27;10.70;;;;;;;3.49;100.00;100078.75;5103104;28;20051;-69
2021/05/05 04:31:04;;;;;;;29.45;12.43;;;;;;;3.48;100.00;100092.66;5102754;28;20104;-68
2021/05/05 04:33:29;;;;;;;30.38;14.20;;;;;;;3.51;100.00;100085.72;5103678;28;20020;-68
2021/05/05 04:35:55;;;;;;;30.23;14.60;;;;;;;3.54;100.00;100098.84;5101782;28;20050;-68
2021/05/05 04:38:20;;;;;;;30.33;13.73;;;;;;;3.59;100.00;100110.31;5104974;28;20011;-70
2021/05/05 04:40:45;;;;;;;28.63;11.50;;;;;;;3.60;100.00;100117.31;5101395;28;20382;-69
2021/05/05 04:43:11;;;;;;;27.23;11.90;;;;;;;3.66;100.00;100106.97;5103730;28;20020;-70
2021/05/05 04:45:36;;;;;;;28.27;11.65;;;;;;;3.77;100.00;100118.53;5102823;28;20016;-68
2021/05/05 04:48:02;;;;;;;33.05;13.18;;;;;;;3.73;100.00;100128.88;5102223;28;20023;-70
2021/05/05 04:50:27;;;;;;;28.20;13.25;;;;;;;3.75;100.00;100128.06;5104196;28;20031;-69
2021/05/05 04:52:53;;;;;;;30.73;14.43;;;;;;;3.76;100.00;100135.06;5101051;28;20024;-69
2021/05/05 04:55:19;;;;;;;34.83;15.63;;;;;;;3.70;100.00;100140.19;5096998;28;20047;-70
2021/05/05 04:57:45;;;;;;;32.10;15.65;;;;;;;3.74;100.00;100142.00;5102687;28;20031;-69
2021/05/05 05:00:11;;;;;;;30.42;15.48;;;;;;;3.72;100.00;100141.06;5102200;28;20038;-69
2021/05/05 05:02:36;;;;;;;32.10;15.80;;;;;;;3.71;100.00;100144.53;5102898;28;20478;-70
2021/05/05 05:05:04;;;;;;;33.83;16.00;;;;;;;3.69;100.00;100146.25;5103522;28;20019;-70
2021/05/05 05:07:30;;;;;;;33.10;16.45;;;;;;;3.70;100.00;100148.03;5101707;28;20387;-69
2021/05/05 05:09:56;;;;;;;34.97;17.02;;;;;;;3.69;100.00;100148.84;5104192;28;20031;-69
2021/05/05 05:12:22;;;;;;;34.65;18.35;;;;;;;3.69;100.00;100148.84;5100724;28;20031;-66
2021/05/05 05:14:47;;;;;;;35.92;20.75;;;;;;;3.69;100.00;100156.69;5099355;28;20024;-68
2021/05/05 05:17:12;;;;;;;40.15;21.92;;;;;;;3.71;100.00;100155.00;5100874;28;20528;-63
2021/05/05 05:19:38;;;;;;;35.10;19.88;;;;;;;3.71;100.00;100157.59;5097409;28;20114;-68
2021/05/05 05:22:03;;;;;;;34.50;18.65;;;;;;;3.70;100.00;100154.97;5099315;28;20081;-63
2021/05/05 05:24:29;;;;;;;34.80;17.42;;;;;;;3.72;100.00;100155.88;5100670;28;20039;-63
2021/05/05 05:26:54;;;;;;;32.25;16.88;;;;;;;3.77;100.00;100159.47;5096021;28;20054;-69
2021/05/05 05:29:20;;;;;;;32.35;15.77;;;;;;;3.81;100.00;100169.16;5098296;28;20088;-70
2021/05/05 05:31:46;;;;;;;32.75;15.30;;;;;;;3.80;100.00;100172.59;5103256;28;20120;-63
2021/05/05 05:34:12;;;;;;;32.47;14.43;;;;;;;3.78;100.00;100174.31;5100759;28;20356;-63
2021/05/05 05:36:38;;;;;;;30.08;13.55;;;;;;;3.77;100.00;100177.78;5102398;28;20015;-63
2021/05/05 05:39:04;;;;;;;28.15;11.15;;;;;;;3.70;100.00;100182.00;5100196;28;20526;-62
2021/05/05 05:41:30;;;;;;;27.02;11.13;;;;;;;3.70;100.00;100187.22;5106735;28;20062;-62
2021/05/05 05:43:55;;;;;;;26.33;10.60;;;;;;;3.66;100.00;100178.41;5099798;28;20103;-62
2021/05/05 05:46:20;;;;;;;28.83;10.68;;;;;;;3.67;100.00;100185.44;5104476;28;20011;-63
2021/05/05 05:48:45;;;;;;;24.67;9.38;;;;;;;3.63;100.00;100199.28;5107097;28;20035;-64
2021/05/05 05:51:11;;;;;;;23.65;8.70;;;;;;;3.59;100.00;100204.41;5106334;28;20046;-63
2021/05/05 05:53:36;;;;;;;22.13;8.18;;;;;;;3.57;100.00;100200.84;5105056;28;20111;-63
2021/05/05 05:56:02;;;;;;;26.52;9.77;;;;;;;3.53;100.00;100206.88;5105576;28;20466;-62
2021/05/05 05:58:27;;;;;;;25.58;8.93;;;;;;;3.47;100.00;100210.25;5101340;28;20035;-62
2021/05/05 06:00:53;;;;;;;24.48;8.82;;;;;;;3.42;100.00;100212.75;5102100;28;20035;-62
2021/05/05 06:03:18;;;;;;;25.13;9.57;;;;;;;3.43;100.00;100218.84;5102157;28;20369;-65
2021/05/05 06:05:43;;;;;;;27.38;9.85;;;;;;;3.45;100.00;100227.59;5098954;28;20050;-65
2021/05/05 06:08:09;;;;;;;25.83;10.00;;;;;;;3.57;100.00;100221.75;5104379;28;20072;-63
2021/05/05 06:10:34;;;;;;;26.20;10.25;;;;;;;3.60;100.00;100232.31;5101445;28;20073;-63
2021/05/05 06:13:00;;;;;;;26.92;9.77;;;;;;;3.62;100.00;100233.22;5103084;28;20107;-64
2021/05/05 06:15:26;;;;;;;25.13;9.20;;;;;;;3.60;100.00;100233.19;5101964;28;20248;-65
2021/05/05 06:17:51;;;;;;;27.80;10.40;;;;;;;3.57;100.00;100234.84;5101497;28;20027;-64
2021/05/05 06:20:17;;;;;;;24.50;8.50;;;;;;;3.48;100.00;100248.56;5100314;28;20028;-65
2021/05/05 06:22:42;;;;;;;20.23;6.47;;;;;;;3.43;100.00;100237.16;5099335;28;20470;-64
2021/05/05 06:25:09;;;;;;;21.23;6.85;;;;;;;3.31;100.00;100240.34;5100811;28;20076;-65
2021/05/05 06:27:36;;;;;;;19.25;6.22;;;;;;;3.34;100.00;100250.00;5101244;28;20063;-66
2021/05/05 06:30:03;;;;;;;18.95;6.22;;;;;;;3.33;100.00;100250.84;5094922;28;20025;-70
2021/05/05 06:32:28;;;;;;;19.77;6.53;;;;;;;3.38;100.00;100263.16;5094584;28;20102;-72
2021/05/05 06:34:53;;;;;;;20.23;6.93;;;;;;;3.43;100.00;100258.91;5094662;28;20161;-72
2021/05/05 06:37:19;;;;;;;19.73;6.78;;;;;;;3.46;100.00;100271.19;5094453;28;20434;-71
2021/05/05 06:39:45;;;;;;;21.20;7.32;;;;;;;3.50;100.00;100249.50;5094425;28;20035;-67
2021/05/05 06:42:10;;;;;;;22.15;7.18;;;;;;;3.53;100.00;100257.41;5094717;28;20051;-71
2021/05/05 06:44:35;;;;;;;22.30;8.00;;;;;;;3.57;100.00;100264.50;5093207;28;20039;-68
2021/05/05 06:47:01;;;;;;;22.63;7.78;;;;;;;3.61;100.00;100260.19;5092756;28;20026;-67
2021/05/05 06:49:26;;;;;;;21.30;7.65;;;;;;;3.61;100.00;100254.97;5097045;28;20024;-69
2021/05/05 06:51:52;;;;;;;21.25;7.63;;;;;;;3.66;100.00;100258.59;5094570;28;20077;-70
2021/05/05 06:54:18;;;;;;;22.42;8.32;;;;;;;3.73;100.00;100262.22;5094882;28;20024;-66
2021/05/05 06:56:43;;;;;;;22.63;8.13;;;;;;;3.78;100.00;100265.81;5092430;28;20029;-69
2021/05/05 06:59:09;;;;;;;21.65;7.85;;;;;;;3.86;100.00;100260.75;5093872;28;20063;-67
2021/05/05 07:01:38;;;;;;;22.40;7.88;;;;;;;3.92;100.00;100268.75;5091735;28;20106;-66
2021/05/05 07:04:12;;;;;;;22.02;7.93;;;;;;;3.91;100.00;100264.38;5091728;28;20534;-67
2021/05/05 07:06:38;;;;;;;22.05;8.00;;;;;;;3.99;100.00;100263.69;5091513;28;20424;-69
2021/05/05 07:09:05;;;;;;;23.38;8.30;;;;;;;4.03;100.00;100277.72;5095265;28;20024;-69
2021/05/05 07:11:32;;;;;;;22.95;7.80;;;;;;;4.01;100.00;100282.03;5094625;28;20458;-70
2021/05/05 07:13:58;;;;;;;23.73;8.38;;;;;;;4.03;100.00;100275.09;5094107;28;20024;-70
2021/05/05 07:16:24;;;;;;;22.55;8.25;;;;;;;4.02;100.00;100289.03;5099949;28;20043;-64
2021/05/05 07:18:49;;;;;;;22.15;7.88;;;;;;;4.06;100.00;100284.75;5100047;28;20032;-70
2021/05/05 07:21:15;;;;;;;23.85;8.80;;;;;;;4.12;100.00;100270.09;5100308;28;20024;-65
2021/05/05 07:23:43;;;;;;;22.85;8.90;;;;;;;4.24;100.00;100279.00;5100964;28;20459;-63
2021/05/05 07:26:08;;;;;;;23.23;9.15;;;;;;;4.33;100.00;100285.34;5102093;28;20033;-63
2021/05/05 07:28:33;;;;;;;23.42;9.68;;;;;;;4.43;100.00;100278.56;5099619;28;20032;-63
2021/05/05 07:30:58;;;;;;;25.02;10.10;;;;;;;4.65;100.00;100292.09;5098226;28;20118;-63
2021/05/05 07:33:24;;;;;;;25.35;10.50;;;;;;;4.91;100.00;100295.19;5095668;28;20035;-62
2021/05/05 07:35:53;;;;;;;22.90;9.52;;;;;;;5.05;100.00;100280.63;5099253;28;20069;-63
2021/05/05 07:49:18;;;;;;;26.77;10.85;;;;;;;5.54;100.00;100291.03;5091160;28;20039;-69
2021/05/05 07:51:44;;;;;;;27.42;9.65;;;;;;;5.49;98.37;100299.69;5098164;28;20040;-67
2021/05/05 07:54:10;;;;;;;27.13;10.15;;;;;;;5.56;98.09;100301.53;5094382;28;20390;-70
2021/05/05 07:56:36;;;;;;;25.85;10.20;;;;;;;5.73;100.00;100299.19;5102284;28;20046;-66
2021/05/05 07:59:02;;;;;;;28.75;10.40;;;;;;;5.69;96.82;100328.84;5099995;28;20494;-66
2021/05/05 08:01:32;;;;;;;27.10;9.82;;;;;;;5.66;89.60;100328.81;5100870;28;20127;-68
2021/05/05 08:03:58;;;;;;;26.48;9.02;;;;;;;5.66;86.10;100308.69;5101009;28;20063;-66
2021/05/05 08:06:25;;;;;;;27.33;8.95;;;;;;;5.66;85.01;100339.28;5100384;28;20035;-69
2021/05/05 08:08:51;;;;;;;28.20;9.57;;;;;;;5.74;89.91;100327.19;5101185;28;20509;-68
2021/05/05 08:11:16;;;;;;;29.10;9.50;;;;;;;5.88;87.37;100332.66;5092821;28;20082;-64
2021/05/05 08:13:42;;;;;;;26.50;7.97;;;;;;;5.97;83.65;100324.03;5089312;28;20413;-65
2021/05/05 08:16:09;;;;;;;30.42;9.18;;;;;;;5.95;83.60;100339.75;5090576;28;20032;-62
2021/05/05 08:18:35;;;;;;;27.52;8.85;;;;;;;6.02;85.13;100320.66;5087524;28;20529;-62
2021/05/05 08:21:01;;;;;;;27.45;9.27;;;;;;;6.07;84.25;100331.22;5091459;28;20036;-63
2021/05/05 08:23:27;;;;;;;26.38;8.68;;;;;;;6.03;83.81;100330.31;5091740;28;20042;-65
2021/05/05 08:25:53;;;;;;;30.98;9.75;;;;;;;6.05;84.79;100325.06;5100275;28;20024;-65
2021/05/05 08:28:18;;;;;;;31.02;9.68;;;;;;;5.99;84.89;100335.47;5098447;28;20040;-65
2021/05/05 08:30:43;;;;;;;28.75;9.68;;;;;;;5.80;87.33;100347.41;5098295;28;20031;-68
2021/05/05 08:33:09;;;;;;;27.83;10.05;;;;;;;5.61;92.01;100335.69;5101682;28;20467;-66
2021/05/05 08:35:34;;;;;;;30.58;11.40;;;;;;;5.47;100.00;100348.59;5095193;28;20040;-66
2021/05/05 08:38:00;;;;;;;29.02;10.88;;;;;;;5.42;100.00;100351.16;5099188;28;20115;-67
2021/05/05 08:40:25;;;;;;;25.05;8.57;;;;;;;5.36;94.38;100356.28;5098548;28;20051;-66
2021/05/05 08:42:51;;;;;;;26.08;8.32;;;;;;;5.32;87.76;100344.84;5100234;28;20103;-65
2021/05/05 08:45:21;;;;;;;24.67;8.98;;;;;;;5.51;95.52;100356.53;5103495;28;20438;-67
2021/05/05 08:47:49;;;;;;;27.23;8.05;;;;;;;5.91;84.98;100366.78;5101454;28;20031;-66
2021/05/05 08:50:17;;;;;;;28.15;8.77;;;;;;;6.21;88.33;100363.78;5103385;28;20047;-66
2021/05/05 08:52:43;;;;;;;25.58;7.90;;;;;;;6.35;81.77;100353.50;5100982;28;20024;-68
2021/05/05 08:55:11;;;;;;;25.05;8.80;;;;;;;6.36;79.90;100371.00;5102402;28;20537;-67
2021/05/05 08:57:36;;;;;;;25.92;8.70;;;;;;;6.81;78.24;100363.69;5094370;28;20028;-66
2021/05/05 09:00:06;;;;;;;27.08;8.90;;;;;;;7.45;77.07;100363.50;5096492;28;20488;-67
2021/05/05 09:02:31;;;;;;;25.85;7.80;;;;;;;7.39;71.12;100381.00;5095329;28;20390;-67
2021/05/05 09:05:04;;;;;;;27.05;8.23;;;;;;;7.27;72.85;100381.75;5094284;28;20011;-67
2021/05/05 09:07:32;;;;;;;27.23;7.55;;;;;;;7.27;72.95;100374.72;5097307;28;20031;-66
2021/05/05 09:10:09;;;;;;;23.92;7.38;;;;;;;7.01;72.65;100370.94;5098999;28;20020;-70
2021/05/05 09:12:37;;;;;;;24.73;7.90;;;;;;;6.78;75.54;100395.19;5097943;28;20035;-68
2021/05/05 09:15:16;;;;;;;27.63;9.95;;;;;;;6.10;87.95;100415.22;5105356;28;20064;-70
2021/05/05 09:17:48;;;;;;;26.45;9.60;;;;;;;4.92;100.00;100411.34;5099623;28;20525;-65
2021/05/05 09:20:22;;;;;;;28.20;9.90;;;;;;;4.67;100.00;100402.97;5103425;28;20051;-69
2021/05/05 09:23:02;;;;;;;29.60;11.45;;;;;;;5.54;100.00;100409.03;5101564;28;20035;-69
2021/05/05 09:25:30;;;;;;;24.38;7.78;;;;;;;6.28;93.56;100406.78;5100370;28;20020;-69
2021/05/05 09:28:18;;;;;;;25.52;9.70;;;;;;;7.13;87.04;100403.50;5100037;28;20294;-69
2021/05/05 09:30:52;;;;;;;28.85;8.82;;;;;;;7.45;82.24;100399.47;5102672;28;20031;-70
2021/05/05 09:33:34;;;;;;;25.05;8.57;;;;;;;7.84;80.21;100420.00;5100788;28;20470;-69
2021/05/05 09:36:05;;;;;;;23.20;7.13;;;;;;;8.09;79.94;100429.84;5101030;28;20107;-68
2021/05/05 09:38:49;;;;;;;24.10;6.93;;;;;;;8.27;73.37;100413.28;5104217;28;20019;-70
2021/05/05 09:41:31;;;;;;;22.45;5.97;;;;;;;7.76;71.98;100415.53;5101906;28;20135;-70
2021/05/05 09:44:07;;;;;;;21.05;5.80;;;;;;;7.30;71.42;100439.63;5102512;28;20024;-67
2021/05/05 09:46:45;;;;;;;22.73;6.13;;;;;;;7.33;69.43;100448.41;5101787;28;20034;-68
2021/05/05 09:49:27;;;;;;;21.95;5.53;;;;;;;7.53;69.89;100449.50;5096108;28;20028;-68
2021/05/05 09:52:05;;;;;;;21.23;5.70;;;;;;;7.36;69.32;100462.47;5098749;28;20540;-69
2021/05/05 09:54:53;;;;;;;20.55;5.15;;;;;;;7.21;67.05;100457.91;5102021;28;20420;-69
2021/05/05 09:57:24;;;;;;;20.92;5.53;;;;;;;7.15;65.00;100470.13;5103874;28;20052;-68
2021/05/05 09:59:56;;;;;;;22.42;5.85;;;;;;;7.42;66.82;100465.19;5107112;28;20036;-69
2021/05/05 10:02:23;;;;;;;22.35;6.25;;;;;;;8.56;69.02;100471.47;5100215;28;20028;-68
2021/05/05 10:05:07;;;;;;;24.50;6.38;;;;;;;8.76;64.22;100476.00;5107287;28;20026;-69
2021/05/05 10:07:49;;;;;;;23.23;6.15;;;;;;;8.48;63.61;100503.03;5102463;28;20028;-68
2021/05/05 10:10:15;;;;;;;23.38;6.25;;;;;;;7.55;65.83;100476.72;5104816;27;20031;-69
2021/05/05 10:12:41;;;;;;;25.30;6.20;;;;;;;7.19;71.87;100506.97;5105708;28;20035;-69
2021/05/05 10:15:07;;;;;;;18.85;5.13;;;;;;;6.38;77.35;100505.81;5105688;28;20027;-68
2021/05/05 10:17:34;;;;;;;20.08;5.15;;;;;;;6.24;80.43;100513.47;5104001;28;20029;-66
2021/05/05 10:20:01;;;;;;;21.52;5.40;;;;;;;7.99;75.70;100524.56;5106398;28;20473;-66
2021/05/05 10:22:26;;;;;;;18.27;4.82;;;;;;;9.09;67.06;100533.31;5104125;28;20038;-67
2021/05/05 10:24:53;;;;;;;19.02;4.80;;;;;;;10.17;67.32;100532.78;5107038;28;20019;-66
2021/05/05 10:27:19;;;;;;;19.70;4.70;;;;;;;10.61;63.12;100534.59;5103350;28;20040;-64
2021/05/05 10:29:45;;;;;;;20.08;4.95;;;;;;;10.10;60.46;100543.31;5106526;28;20356;-66
2021/05/05 10:32:13;;;;;;;20.58;4.97;;;;;;;9.33;63.79;100543.09;5104801;28;20023;-67
2021/05/05 10:34:41;;;;;;;21.30;5.95;;;;;;;8.08;72.48;100555.34;5104989;28;20485;-64
2021/05/05 10:37:08;;;;;;;23.48;5.47;;;;;;;7.36;77.95;100572.94;5105470;28;20035;-67
2021/05/05 10:39:35;;;;;;;19.35;4.40;;;;;;;6.32;77.17;100559.97;5104302;28;20024;-64
2021/05/05 10:42:11;;;;;;;15.07;3.85;;;;;;;6.49;75.53;100569.00;5105737;28;20046;-67
2021/05/05 10:44:41;;;;;;;19.30;4.18;;;;;;;5.91;77.63;100559.22;5104690;28;20039;-65
2021/05/05 10:47:17;;;;;;;20.83;3.67;;;;;;;5.52;75.69;100578.56;5105558;28;20450;-66
2021/05/05 10:50:05;;;;;;;21.20;3.80;;;;;;;5.66;78.12;100580.59;5105328;28;20024;-65
2021/05/05 10:52:33;;;;;;;19.23;3.95;;;;;;;6.14;76.09;100592.03;5100950;28;20463;-66
2021/05/05 10:54:59;;;;;;;19.88;4.00;;;;;;;7.71;72.69;100578.63;5105991;28;20064;-66
2021/05/05 10:57:26;;;;;;;16.67;3.90;;;;;;;9.56;64.74;100571.34;5103082;28;20059;-66
2021/05/05 11:00:02;;;;;;;19.50;4.50;;;;;;;10.53;63.86;100582.16;5098975;28;20086;-68
2021/05/05 11:02:52;;;;;;;21.65;5.28;;;;;;;10.87;63.00;100583.94;5099920;28;20036;-64
2021/05/05 11:05:17;;;;;;;18.90;5.25;;;;;;;11.27;58.70;100587.38;5103029;28;20474;-65
2021/05/05 11:07:53;;;;;;;20.48;5.22;;;;;;;10.79;60.19;100590.09;5105175;28;20081;-68
2021/05/05 11:10:30;;;;;;;22.58;6.45;;;;;;;9.14;66.53;100586.06;5102875;28;20035;-68
2021/05/05 11:12:56;;;;;;;25.05;7.03;;;;;;;8.78;69.91;100582.31;5099258;28;20031;-67
2021/05/05 11:15:41;;;;;;;23.13;7.07;;;;;;;8.81;69.56;100588.50;5102162;28;20023;-67
2021/05/05 11:18:24;;;;;;;25.33;7.35;;;;;;;8.87;68.37;100596.44;5098192;28;20031;-70
2021/05/05 11:20:50;;;;;;;24.75;6.13;;;;;;;8.68;67.30;100599.81;5101492;28;20030;-69
2021/05/05 11:23:34;;;;;;;20.52;5.95;;;;;;;10.11;63.29;100568.88;5104620;28;20027;-70
2021/05/05 11:26:16;;;;;;;17.38;4.68;;;;;;;11.44;57.30;100612.91;5104562;28;20049;-69